Time;durP1;ratioP1;P1;durP2;ratioP2;P2;SDS_P1;SDS_P2;PMS_P1;PMS_P2;Temp;Humidity;BMP_temperature;BMP_pressure;BME280_temperature;BME280_humidity;BME280_pressure;Samples;Min_cycle;Max_cycle;Signal;HPM_P1;HPM_P2
2022/05/07 00:01:20;;;;;;;8.85;6.78;;;;;;;15.78;76.10;100735.87;4470396;32;20089;-67
2022/05/07 00:03:47;;;;;;;9.70;5.93;;;;;;;15.74;75.31;100736.00;4470491;32;20116;-67
2022/05/07 00:06:15;;;;;;;7.47;6.22;;;;;;;15.70;75.12;100739.66;4470457;32;20193;-67
2022/05/07 00:08:42;;;;;;;11.95;7.12;;;;;;;15.67;76.32;100743.28;4470470;32;20126;-67
2022/05/07 00:11:09;;;;;;;7.37;6.57;;;;;;;15.62;76.65;100741.59;4470416;32;20185;-67
2022/05/07 00:13:36;;;;;;;8.57;6.62;;;;;;;15.59;76.26;100739.94;4470449;32;20127;-67
2022/05/07 00:18:49;;;;;;;8.68;7.10;;;;;;;15.60;75.93;100746.97;4470578;32;20824;-67
2022/05/07 00:21:16;;;;;;;13.88;7.35;;;;;;;15.60;77.23;100746.09;4470125;32;20507;-67
2022/05/07 00:23:44;;;;;;;10.30;7.55;;;;;;;15.60;77.52;100743.44;4470681;32;20702;-67
2022/05/07 00:26:11;;;;;;;8.52;6.60;;;;;;;15.60;78.25;100743.44;4470329;32;20476;-67
2022/05/07 00:28:38;;;;;;;11.73;7.18;;;;;;;15.60;76.88;100749.63;4470590;32;20165;-67
2022/05/07 00:31:05;;;;;;;10.85;7.10;;;;;;;15.53;78.43;100745.41;4470176;32;20127;-67
2022/05/07 00:33:33;;;;;;;12.15;7.53;;;;;;;15.47;78.85;100742.91;4470272;32;20100;-67
2022/05/07 00:36:00;;;;;;;9.82;7.30;;;;;;;15.44;79.00;100749.19;4470131;32;20177;-67
2022/05/07 00:38:27;;;;;;;9.90;7.65;;;;;;;15.43;78.50;100744.75;4470163;32;20093;-67
2022/05/07 00:40:55;;;;;;;12.52;7.53;;;;;;;15.46;78.00;100750.00;4470150;32;20139;-67
2022/05/07 00:43:22;;;;;;;11.48;7.20;;;;;;;15.49;79.19;100743.75;4470194;32;20108;-67
2022/05/07 00:45:50;;;;;;;9.07;7.15;;;;;;;15.48;78.14;100740.22;4470189;32;20114;-67
2022/05/07 00:48:18;;;;;;;9.15;7.68;;;;;;;15.51;78.91;100737.47;4470144;32;20152;-67
2022/05/07 00:53:33;;;;;;;9.33;7.50;;;;;;;15.55;77.96;100732.97;4470264;32;20123;-67
2022/05/07 00:56:01;;;;;;;9.57;7.53;;;;;;;15.53;77.79;100730.31;4470164;32;20171;-67
2022/05/07 00:58:28;;;;;;;13.35;7.05;;;;;;;15.56;77.56;100734.69;4469994;32;20122;-67
2022/05/07 01:00:56;;;;;;;9.50;7.75;;;;;;;15.56;76.98;100732.03;4470268;32;20481;-67
2022/05/07 01:03:23;;;;;;;8.60;7.70;;;;;;;15.52;77.42;100733.03;4470256;32;20536;-67
2022/05/07 01:05:50;;;;;;;11.77;8.20;;;;;;;15.49;77.81;100735.78;4470202;32;20160;-67
2022/05/07 01:08:20;;;;;;;13.27;8.10;;;;;;;15.44;77.64;100737.66;4469345;32;20088;-67
2022/05/07 01:10:47;;;;;;;10.40;7.65;;;;;;;15.40;77.73;100730.69;4470135;32;20104;-67
2022/05/07 01:13:15;;;;;;;9.90;7.37;;;;;;;15.41;77.86;100733.31;4470283;32;20116;-67
2022/05/07 01:15:48;;;;;;;10.00;7.37;;;;;;;15.38;77.05;100733.41;4470129;32;20447;-67
2022/05/07 01:18:15;;;;;;;14.07;8.05;;;;;;;15.35;77.88;100727.28;4470237;32;20398;-67
2022/05/07 01:20:43;;;;;;;8.73;7.12;;;;;;;15.29;78.41;100731.84;4469957;32;20210;-67
2022/05/07 01:23:12;;;;;;;8.40;7.32;;;;;;;15.28;78.39;100729.25;4470102;32;20200;-67
2022/05/07 01:25:39;;;;;;;12.57;8.05;;;;;;;15.28;78.74;100726.56;4470106;32;20164;-67
2022/05/07 01:28:07;;;;;;;10.27;7.43;;;;;;;15.28;78.57;100730.09;4469971;32;20135;-67
2022/05/07 01:30:35;;;;;;;15.02;7.72;;;;;;;15.22;78.63;100724.94;4470002;32;20100;-67
2022/05/07 01:33:02;;;;;;;16.30;8.15;;;;;;;15.21;77.65;100727.66;4470073;32;20528;-67
2022/05/07 01:35:30;;;;;;;8.95;7.90;;;;;;;15.22;78.93;100729.38;4469992;32;20156;-67
2022/05/07 01:37:58;;;;;;;7.87;7.07;;;;;;;15.19;78.69;100725.00;4469668;32;20135;-67
2022/05/07 01:40:25;;;;;;;11.32;7.65;;;;;;;15.09;79.88;100727.94;4469821;32;20155;-67
2022/05/07 01:42:56;;;;;;;9.30;7.32;;;;;;;15.01;80.01;100730.78;4469943;32;20207;-67
2022/05/07 01:45:23;;;;;;;10.38;7.12;;;;;;;14.95;80.23;100725.66;4469912;32;20079;-67
2022/05/07 01:48:10;;;;;;;9.70;8.60;;;;;;;14.97;79.80;100726.47;4469724;32;20495;-67
2022/05/07 01:50:42;;;;;;;13.63;7.67;;;;;;;14.93;79.93;100725.69;4469740;32;20160;-67
2022/05/07 01:53:12;;;;;;;10.65;8.15;;;;;;;14.90;80.41;100727.53;4469835;32;20136;-67
2022/05/07 01:55:43;;;;;;;10.30;7.47;;;;;;;14.83;81.04;100726.81;4469796;32;20450;-67
2022/05/07 01:58:12;;;;;;;10.07;7.80;;;;;;;14.78;80.86;100726.91;4469456;32;20080;-67
2022/05/07 02:00:40;;;;;;;8.27;7.45;;;;;;;14.75;80.58;100718.16;4469647;32;20149;-67
2022/05/07 02:03:09;;;;;;;12.15;7.93;;;;;;;14.76;80.45;100725.22;4469582;32;20169;-67
2022/05/07 02:05:37;;;;;;;8.75;7.68;;;;;;;14.69;80.65;100721.81;4469307;32;20073;-67
2022/05/07 02:08:04;;;;;;;12.30;7.60;;;;;;;14.71;80.45;100717.38;4455017;32;20096;-67
2022/05/07 02:10:32;;;;;;;8.15;6.30;;;;;;;14.71;80.30;100721.81;4469577;32;20236;-67
2022/05/07 02:13:01;;;;;;;10.65;7.20;;;;;;;14.76;79.20;100720.75;4469424;32;20097;-66
2022/05/07 02:15:29;;;;;;;7.70;6.68;;;;;;;14.72;79.56;100720.88;4469316;32;20081;-67
2022/05/07 02:17:57;;;;;;;8.73;7.28;;;;;;;14.75;79.35;100716.38;4469321;32;20509;-67
2022/05/07 02:20:25;;;;;;;8.75;6.12;;;;;;;14.72;79.52;100716.44;4470059;32;20155;-67
2022/05/07 02:22:57;;;;;;;8.35;6.80;;;;;;;14.74;78.46;100721.75;4471255;32;20116;-67
2022/05/07 02:25:25;;;;;;;8.30;6.45;;;;;;;14.74;78.51;100722.59;4471385;32;20155;-67
2022/05/07 02:27:53;;;;;;;7.15;6.45;;;;;;;14.71;78.54;100727.09;4471151;32;20145;-67
2022/05/07 02:30:20;;;;;;;12.77;6.40;;;;;;;14.70;78.91;100725.34;4471288;32;20552;-67
2022/05/07 02:32:48;;;;;;;7.20;5.70;;;;;;;14.61;79.17;100717.63;4471429;32;20120;-67
2022/05/07 02:35:16;;;;;;;7.12;6.40;;;;;;;14.54;79.34;100722.19;4471279;32;20144;-67
2022/05/07 02:37:44;;;;;;;8.27;5.97;;;;;;;14.53;79.03;100723.09;4471185;32;20103;-67
2022/05/07 02:40:12;;;;;;;7.32;6.57;;;;;;;14.52;79.09;100719.59;4471388;32;20151;-67
2022/05/07 02:42:40;;;;;;;8.00;6.10;;;;;;;14.50;78.94;100728.47;4471333;32;20108;-67
2022/05/07 02:45:09;;;;;;;6.57;5.90;;;;;;;14.49;78.95;100724.06;4471203;32;20484;-67
2022/05/07 02:47:38;;;;;;;9.65;5.47;;;;;;;14.47;79.10;100726.72;4471205;32;20092;-67
2022/05/07 02:50:08;;;;;;;7.55;5.93;;;;;;;14.44;79.52;100723.25;4471151;32;20088;-67
2022/05/07 02:52:36;;;;;;;10.32;5.90;;;;;;;14.43;79.65;100719.75;4471126;32;20437;-67
2022/05/07 02:55:06;;;;;;;6.80;5.87;;;;;;;14.45;78.80;100722.34;4456486;32;20088;-67
2022/05/07 02:57:34;;;;;;;6.53;5.60;;;;;;;14.41;79.25;100729.50;4471025;32;20184;-67
2022/05/07 03:00:03;;;;;;;6.72;5.57;;;;;;;14.38;78.71;100726.03;4471089;32;20088;-67
2022/05/07 03:02:31;;;;;;;8.65;5.82;;;;;;;14.39;79.25;100722.50;4471079;32;20120;-67
2022/05/07 03:04:59;;;;;;;9.02;5.18;;;;;;;14.34;78.92;100714.63;4470982;32;20081;-67
2022/05/07 03:07:26;;;;;;;6.25;4.90;;;;;;;14.29;79.52;100717.41;4471051;32;20092;-67
2022/05/07 03:09:53;;;;;;;6.28;5.37;;;;;;;14.28;78.80;100710.34;4470991;32;20160;-67
2022/05/07 03:12:22;;;;;;;10.73;5.37;;;;;;;14.33;78.83;100716.41;4470806;32;20512;-67
2022/05/07 03:14:49;;;;;;;5.40;4.90;;;;;;;14.34;78.27;100728.75;4471021;32;20814;-67
2022/05/07 03:17:17;;;;;;;6.85;5.20;;;;;;;14.40;77.84;100721.59;4470720;32;20127;-67
2022/05/07 03:19:44;;;;;;;8.63;4.80;;;;;;;14.39;78.92;100722.50;4470493;32;20088;-66
2022/05/07 03:22:12;;;;;;;5.35;4.85;;;;;;;14.35;77.99;100729.66;4470007;32;20187;-67
2022/05/07 03:24:41;;;;;;;5.75;5.15;;;;;;;14.34;77.57;100731.41;4470205;32;20096;-67
2022/05/07 03:27:09;;;;;;;5.65;5.15;;;;;;;14.34;78.40;100726.09;4470074;32;20118;-67
2022/05/07 03:29:36;;;;;;;5.95;5.12;;;;;;;14.27;78.29;100726.28;4469948;32;20119;-67
2022/05/07 03:32:04;;;;;;;6.20;4.93;;;;;;;14.24;78.70;100727.25;4455084;32;20619;-67
2022/05/07 03:34:32;;;;;;;6.03;4.87;;;;;;;14.26;78.78;100721.87;4470088;32;20417;-67
2022/05/07 03:36:59;;;;;;;9.80;5.72;;;;;;;14.21;78.73;100727.31;4469616;32;20096;-67
2022/05/07 03:39:27;;;;;;;6.80;5.28;;;;;;;14.24;78.91;100736.94;4470069;32;20126;-67
2022/05/07 03:41:54;;;;;;;7.65;4.93;;;;;;;14.27;78.62;100739.53;4455476;32;20188;-67
2022/05/07 03:44:21;;;;;;;6.22;5.62;;;;;;;14.30;78.38;100739.47;4469625;32;20149;-67
2022/05/07 03:46:49;;;;;;;7.45;5.43;;;;;;;14.33;78.17;100731.44;4469937;32;20168;-67
2022/05/07 03:49:20;;;;;;;7.32;5.28;;;;;;;14.38;77.99;100737.53;4469909;32;20081;-67
2022/05/07 03:54:34;;;;;;;8.75;5.15;;;;;;;14.35;77.83;100733.19;4469919;32;20131;-67
2022/05/07 03:57:01;;;;;;;8.48;5.68;;;;;;;14.37;78.45;100737.56;4469645;32;20116;-67
2022/05/07 03:59:29;;;;;;;6.15;5.55;;;;;;;14.41;78.19;100739.22;4469714;32;20525;-67
2022/05/07 04:01:57;;;;;;;11.00;5.95;;;;;;;14.44;78.06;100739.16;4469783;32;20123;-67
2022/05/07 04:04:25;;;;;;;9.70;5.65;;;;;;;14.47;78.29;100736.47;4469532;32;20100;-67
2022/05/07 04:06:53;;;;;;;11.10;5.68;;;;;;;14.48;78.56;100739.06;4469599;32;20598;-67
2022/05/07 04:09:20;;;;;;;8.85;5.47;;;;;;;14.51;77.77;100744.34;4469526;32;20152;-67
2022/05/07 04:11:49;;;;;;;9.00;5.47;;;;;;;14.56;77.79;100738.94;4469629;32;20160;-67
2022/05/07 04:14:16;;;;;;;11.18;5.65;;;;;;;14.59;77.30;100738.84;4469471;32;20375;-67
2022/05/07 04:16:45;;;;;;;5.85;5.30;;;;;;;14.61;77.63;100742.34;4469349;32;20100;-67
2022/05/07 04:19:13;;;;;;;10.13;5.22;;;;;;;14.62;77.31;100736.13;4469663;32;20096;-67
2022/05/07 04:21:41;;;;;;;7.78;5.80;;;;;;;14.71;77.25;100735.94;4464876;32;113663;-67
2022/05/07 04:24:09;;;;;;;6.62;5.37;;;;;;;14.80;76.76;100743.66;4470411;32;20083;-67
2022/05/07 04:26:37;;;;;;;9.57;5.07;;;;;;;14.82;76.47;100743.62;4470297;32;20122;-67
2022/05/07 04:29:04;;;;;;;10.60;5.65;;;;;;;14.90;76.31;100751.41;4470509;32;20131;-67
2022/05/07 04:31:31;;;;;;;6.37;5.78;;;;;;;14.92;76.28;100747.81;4470457;32;20103;-67
2022/05/07 04:34:02;;;;;;;11.05;5.60;;;;;;;14.96;76.54;100749.50;4470440;32;20076;-67
2022/05/07 04:36:30;;;;;;;5.53;5.03;;;;;;;14.99;77.05;100749.41;4470229;32;20100;-67
2022/05/07 04:38:57;;;;;;;7.60;5.25;;;;;;;14.99;77.57;100748.56;4470334;32;20573;-67
2022/05/07 04:41:25;;;;;;;6.25;5.65;;;;;;;15.03;77.42;100752.88;4470383;32;20440;-67
2022/05/07 04:43:54;;;;;;;16.10;6.47;;;;;;;15.03;77.17;100751.09;4469549;32;20080;-67
2022/05/07 04:46:21;;;;;;;6.22;5.62;;;;;;;15.02;76.54;100757.31;4470143;32;20156;-67
2022/05/07 04:48:49;;;;;;;10.02;5.72;;;;;;;15.09;76.54;100758.03;4470077;32;20113;-67
2022/05/07 04:51:16;;;;;;;6.18;5.57;;;;;;;15.13;76.52;100759.69;4470273;32;20095;-67
2022/05/07 04:54:05;;;;;;;6.05;5.45;;;;;;;15.24;76.21;100762.94;4470197;32;20088;-67
2022/05/07 04:56:32;;;;;;;7.22;5.47;;;;;;;15.32;75.71;100767.19;4470421;32;20147;-67
2022/05/07 04:59:00;;;;;;;7.87;5.53;;;;;;;15.41;75.58;100754.56;4470182;32;20120;-67
2022/05/07 05:01:29;;;;;;;10.77;5.90;;;;;;;15.47;75.01;100761.47;4470278;32;20104;-67
2022/05/07 05:03:57;;;;;;;7.32;6.28;;;;;;;15.59;74.96;100763.84;4470134;32;20114;-67
2022/05/07 05:06:25;;;;;;;6.40;5.80;;;;;;;15.66;74.00;100759.28;4470090;32;20092;-67
2022/05/07 05:08:53;;;;;;;7.15;5.97;;;;;;;15.78;73.69;100762.44;4470249;32;20093;-67
2022/05/07 05:11:20;;;;;;;8.68;5.20;;;;;;;15.84;73.80;100763.22;4470005;32;20145;-67
2022/05/07 05:13:48;;;;;;;10.10;5.78;;;;;;;15.91;73.60;100755.03;4470172;32;20381;-67
2022/05/07 05:16:15;;;;;;;6.10;5.50;;;;;;;15.96;73.56;100762.84;4469983;32;20104;-67
2022/05/07 05:18:43;;;;;;;19.12;6.72;;;;;;;16.07;73.26;100763.41;4469989;32;20152;-67
2022/05/07 05:21:11;;;;;;;8.20;6.85;;;;;;;16.15;72.83;100763.22;4470032;32;20115;-67
2022/05/07 05:23:41;;;;;;;9.07;7.18;;;;;;;16.29;72.37;100761.03;4470011;32;20540;-67
2022/05/07 05:26:08;;;;;;;11.32;6.75;;;;;;;16.32;72.25;100763.56;4469891;32;20136;-67
2022/05/07 05:28:39;;;;;;;9.73;6.62;;;;;;;16.36;71.98;100764.34;4469790;32;20127;-67
2022/05/07 05:31:07;;;;;;;10.32;6.43;;;;;;;16.46;71.70;100766.69;4455236;32;20183;-67
2022/05/07 05:33:35;;;;;;;11.12;6.07;;;;;;;16.60;72.22;100766.28;4469841;32;20148;-67
2022/05/07 05:36:04;;;;;;;6.80;5.57;;;;;;;16.70;71.13;100770.41;4470021;32;20149;-67
2022/05/07 05:38:31;;;;;;;9.38;5.37;;;;;;;16.73;70.79;100769.44;4469830;32;20101;-67
2022/05/07 05:40:59;;;;;;;7.65;5.60;;;;;;;16.88;70.23;100765.44;4469887;32;20095;-67
2022/05/07 05:43:27;;;;;;;6.60;5.87;;;;;;;17.10;69.93;100771.84;4469954;32;20110;-67
2022/05/07 05:45:54;;;;;;;7.75;5.12;;;;;;;17.23;69.18;100774.09;4469952;32;20156;-67
2022/05/07 05:48:24;;;;;;;7.10;5.18;;;;;;;17.32;69.19;100773.81;4469603;32;20634;-67
2022/05/07 05:50:51;;;;;;;24.70;5.70;;;;;;;17.46;67.99;100766.22;4469805;32;20454;-67
2022/05/07 05:53:19;;;;;;;7.72;5.40;;;;;;;17.66;68.27;100779.69;4469740;32;20092;-67
2022/05/07 05:55:48;;;;;;;6.03;5.45;;;;;;;17.67;67.41;100772.59;4469820;32;20165;-67
2022/05/07 05:58:19;;;;;;;5.85;5.25;;;;;;;17.75;66.75;100775.84;4469705;32;20088;-67
2022/05/07 06:00:47;;;;;;;7.90;5.68;;;;;;;17.83;65.77;100775.59;4469526;32;20100;-67
2022/05/07 06:03:15;;;;;;;6.65;5.45;;;;;;;17.92;66.24;100769.97;4469598;32;20170;-67
2022/05/07 06:05:43;;;;;;;11.05;6.03;;;;;;;18.00;65.94;100767.00;4469578;32;20085;-67
2022/05/07 06:08:12;;;;;;;11.20;5.75;;;;;;;18.06;65.80;100775.66;4454958;32;20689;-67
2022/05/07 06:10:40;;;;;;;6.45;5.65;;;;;;;18.17;65.77;100772.59;4469290;32;20171;-67
2022/05/07 06:13:08;;;;;;;8.75;5.53;;;;;;;18.46;64.39;100774.16;4454873;32;20171;-67
2022/05/07 06:15:39;;;;;;;10.48;6.03;;;;;;;18.52;63.85;100779.28;4469301;32;20127;-67
2022/05/07 06:18:07;;;;;;;14.20;6.25;;;;;;;18.66;63.92;100772.50;4469094;32;20125;-67
2022/05/07 06:20:35;;;;;;;9.20;5.18;;;;;;;18.74;63.15;100775.78;4469053;32;20100;-67
2022/05/07 06:23:02;;;;;;;10.75;5.43;;;;;;;18.94;62.21;100781.22;4469382;32;20088;-67
2022/05/07 06:28:18;;;;;;;5.72;5.07;;;;;;;18.96;61.33;100787.34;4469446;32;20681;-67
2022/05/07 06:30:46;;;;;;;7.80;5.40;;;;;;;19.06;60.88;100783.38;4469029;32;20101;-67
2022/05/07 06:33:14;;;;;;;5.65;5.07;;;;;;;19.15;61.06;100787.47;4469036;32;20149;-67
2022/05/07 06:35:44;;;;;;;5.93;5.28;;;;;;;19.27;60.84;100786.09;4469214;32;20368;-67
2022/05/07 06:38:13;;;;;;;7.10;5.00;;;;;;;19.32;60.53;100779.63;4468953;32;20168;-67
2022/05/07 06:40:41;;;;;;;5.82;4.90;;;;;;;19.47;61.13;100780.81;4468873;32;20105;-67
2022/05/07 06:43:08;;;;;;;11.35;5.05;;;;;;;19.73;60.20;100786.84;4468896;32;20084;-67
2022/05/07 06:45:38;;;;;;;8.73;5.00;;;;;;;19.85;60.14;100780.97;4469084;32;20122;-67
2022/05/07 06:48:11;;;;;;;9.02;5.03;;;;;;;19.78;59.93;100782.16;4468725;32;20171;-67
2022/05/07 06:50:39;;;;;;;8.10;4.97;;;;;;;19.90;58.71;100781.66;4468937;32;20460;-67
2022/05/07 06:53:07;;;;;;;5.55;4.45;;;;;;;19.92;58.49;100779.75;4468635;32;20171;-67
2022/05/07 06:55:54;;;;;;;7.90;4.82;;;;;;;20.10;59.24;100778.06;4468731;32;20520;-67
2022/05/07 06:58:24;;;;;;;6.10;4.80;;;;;;;20.18;57.71;100777.75;4468664;32;20130;-67
2022/05/07 07:01:01;;;;;;;9.45;5.03;;;;;;;20.06;58.95;100769.31;4468577;32;20119;-67
2022/05/07 07:03:32;;;;;;;5.70;5.20;;;;;;;19.99;58.03;100780.34;4468689;32;20100;-67
2022/05/07 07:06:00;;;;;;;9.63;5.72;;;;;;;19.96;58.48;100773.31;4469446;32;20095;-67
2022/05/07 07:08:30;;;;;;;6.72;5.32;;;;;;;20.08;58.03;100777.28;4471122;32;20487;-67
2022/05/07 07:10:59;;;;;;;5.30;4.90;;;;;;;20.24;57.50;100780.13;4470916;32;21073;-67
2022/05/07 07:13:26;;;;;;;14.48;5.95;;;;;;;20.33;57.80;100778.84;4470954;32;20080;-67
2022/05/07 07:15:53;;;;;;;7.55;4.82;;;;;;;20.33;57.40;100778.84;4470646;32;20179;-67
2022/05/07 07:18:20;;;;;;;6.00;4.87;;;;;;;20.35;57.42;100779.63;4470617;32;20100;-67
2022/05/07 07:20:51;;;;;;;11.93;5.12;;;;;;;20.37;57.82;100778.63;4469003;32;20169;-67
2022/05/07 07:23:18;;;;;;;6.12;5.53;;;;;;;20.52;56.99;100780.59;4470812;32;20096;-67
2022/05/07 07:25:46;;;;;;;15.05;8.02;;;;;;;20.61;56.75;100789.16;4470714;32;20742;-67
2022/05/07 07:28:13;;;;;;;12.75;5.28;;;;;;;21.00;55.36;100786.37;4470778;32;20412;-67
2022/05/07 07:30:40;;;;;;;23.65;5.75;;;;;;;21.10;55.50;100779.63;4470583;32;20126;-67
2022/05/07 07:33:07;;;;;;;11.52;5.28;;;;;;;21.32;54.56;100786.59;4470838;32;20488;-67
2022/05/07 07:35:36;;;;;;;9.00;5.65;;;;;;;21.17;55.11;100786.44;4470669;32;20541;-67
2022/05/07 07:38:03;;;;;;;10.10;4.90;;;;;;;21.19;55.22;100792.56;4470693;32;20089;-67
2022/05/07 07:40:31;;;;;;;6.87;5.65;;;;;;;21.16;53.94;100794.53;4470503;32;20088;-67
2022/05/07 07:42:58;;;;;;;8.57;5.57;;;;;;;20.93;56.40;100792.97;4470641;32;20159;-67
2022/05/07 07:48:12;;;;;;;12.00;7.22;;;;;;;21.22;55.55;100788.88;4470684;32;20096;-67
2022/05/07 07:50:40;;;;;;;15.93;10.75;;;;;;;21.25;56.01;100799.44;4470495;32;20104;-67
2022/05/07 07:53:09;;;;;;;11.12;6.97;;;;;;;21.29;54.69;100792.97;4470413;32;20092;-67
2022/05/07 07:55:37;;;;;;;14.15;5.20;;;;;;;21.32;54.81;100791.97;4470563;32;20556;-67
2022/05/07 07:58:06;;;;;;;7.25;5.00;;;;;;;21.27;55.13;100794.84;4470325;32;20126;-67
2022/05/07 08:00:35;;;;;;;13.10;6.07;;;;;;;21.27;55.66;100794.84;4470454;32;20097;-67
2022/05/07 08:03:10;;;;;;;13.52;5.57;;;;;;;21.22;55.97;100791.53;4470599;32;20076;-67
2022/05/07 08:05:38;;;;;;;6.82;5.18;;;;;;;21.27;56.43;100797.53;4470466;32;20089;-67
2022/05/07 08:13:41;;;;;;;6.50;4.90;;;;;;;21.19;55.97;100791.69;4470303;32;20068;-67
2022/05/07 08:16:10;;;;;;;5.57;4.40;;;;;;;21.40;55.12;100795.16;4470310;32;20088;-67
2022/05/07 08:18:39;;;;;;;17.52;5.22;;;;;;;21.59;54.75;100789.72;4454511;32;20161;-67
2022/05/07 08:21:08;;;;;;;9.35;4.72;;;;;;;21.59;54.92;100795.06;4455452;32;20104;-67
2022/05/07 08:23:37;;;;;;;9.90;5.78;;;;;;;21.88;54.05;100801.66;4470337;32;20084;-67
2022/05/07 08:26:06;;;;;;;10.57;5.25;;;;;;;22.02;53.00;100793.75;4470218;32;20515;-67
2022/05/07 08:28:35;;;;;;;9.00;4.50;;;;;;;22.25;52.44;100794.34;4470226;32;20142;-67
2022/05/07 08:31:03;;;;;;;9.82;5.28;;;;;;;22.09;52.48;100791.59;4470255;32;20160;-67
2022/05/07 08:33:33;;;;;;;7.40;4.78;;;;;;;22.20;52.45;100791.91;4470243;32;20076;-67
2022/05/07 08:36:01;;;;;;;8.38;5.03;;;;;;;22.31;51.69;100800.25;4470248;32;20653;-67
2022/05/07 08:38:28;;;;;;;8.48;5.22;;;;;;;22.37;51.90;100805.31;4470131;32;20096;-67
2022/05/07 08:40:57;;;;;;;6.55;4.70;;;;;;;22.47;51.91;100799.41;4455560;32;20544;-67
2022/05/07 08:43:24;;;;;;;11.30;4.80;;;;;;;22.28;50.38;100799.56;4470119;32;20140;-67
2022/05/07 08:45:52;;;;;;;11.05;4.68;;;;;;;22.51;49.49;100795.59;4470258;32;20153;-67
2022/05/07 08:48:19;;;;;;;14.98;5.12;;;;;;;22.65;49.23;100807.34;4470249;32;20467;-67
2022/05/07 08:50:54;;;;;;;10.48;4.55;;;;;;;22.79;48.13;100809.25;4470197;32;20151;-67
2022/05/07 08:53:21;;;;;;;13.40;4.53;;;;;;;22.88;47.98;100811.41;4470022;32;20139;-67
2022/05/07 08:55:54;;;;;;;8.40;4.78;;;;;;;23.01;48.07;100802.69;4470194;32;20458;-67
2022/05/07 08:58:22;;;;;;;8.68;4.65;;;;;;;23.27;47.87;100812.81;4469949;32;20088;-67
2022/05/07 09:00:50;;;;;;;7.85;4.28;;;;;;;23.41;47.41;100803.94;4470340;32;20134;-67
2022/05/07 09:03:18;;;;;;;10.45;4.37;;;;;;;23.56;45.72;100808.41;4469983;32;20088;-67
2022/05/07 09:05:45;;;;;;;12.50;4.60;;;;;;;23.86;45.55;100810.28;4470140;32;20118;-67
2022/05/07 09:08:12;;;;;;;5.68;3.87;;;;;;;24.04;45.07;100810.97;4469895;32;20084;-68
2022/05/07 09:10:40;;;;;;;9.45;4.47;;;;;;;24.40;44.73;100807.00;4469970;32;20147;-67
2022/05/07 09:13:18;;;;;;;11.85;4.25;;;;;;;24.68;43.95;100809.66;4455740;32;20111;-67
2022/05/07 09:15:58;;;;;;;21.65;11.98;;;;;;;25.07;43.08;100799.94;4470110;32;20119;-67
2022/05/07 09:18:28;;;;;;;10.43;6.20;;;;;;;24.66;43.66;100800.78;4469930;32;20136;-68
2022/05/07 09:23:58;;;;;;;15.25;4.25;;;;;;;24.93;41.99;100790.06;4469979;32;20171;-68
2022/05/07 09:26:27;;;;;;;17.33;4.57;;;;;;;25.01;40.84;100800.34;4470173;32;20118;-67
2022/05/07 09:28:55;;;;;;;7.43;3.90;;;;;;;25.32;40.28;100799.22;4469290;32;20549;-67
2022/05/07 09:31:26;;;;;;;4.10;3.80;;;;;;;25.54;38.88;100798.63;4469736;32;20284;-68
2022/05/07 09:33:55;;;;;;;5.07;3.58;;;;;;;25.49;38.56;100795.38;4469784;32;20103;-68
2022/05/07 09:36:23;;;;;;;6.82;3.58;;;;;;;25.35;39.91;100792.75;4469916;32;20126;-68
2022/05/07 09:39:00;;;;;;;10.70;3.95;;;;;;;25.52;39.03;100781.69;4469622;32;20088;-68
2022/05/07 09:41:28;;;;;;;9.13;3.60;;;;;;;25.38;39.64;100787.16;4469785;32;20178;-67
2022/05/07 09:43:55;;;;;;;5.75;3.35;;;;;;;25.39;39.16;100784.34;4469739;32;20145;-67
2022/05/07 09:46:22;;;;;;;7.12;4.07;;;;;;;25.54;39.38;100777.03;4469630;32;20101;-68
2022/05/07 09:48:51;;;;;;;6.97;4.12;;;;;;;25.42;40.44;100784.16;4469833;32;20099;-67
2022/05/07 09:51:19;;;;;;;8.23;4.35;;;;;;;25.50;39.59;100768.28;4469590;32;20091;-68
2022/05/07 09:59:20;;;;;;;8.55;3.35;;;;;;;25.93;38.61;100761.78;4469441;32;20130;-68
2022/05/07 10:02:04;;;;;;;5.00;3.72;;;;;;;26.33;37.02;100767.09;4469527;32;20176;-67
2022/05/07 10:04:47;;;;;;;9.10;3.67;;;;;;;26.77;37.47;100757.59;4469509;32;20498;-68
2022/05/07 10:07:40;;;;;;;4.93;3.50;;;;;;;26.90;37.06;100763.84;4469481;32;20504;-67
2022/05/07 10:10:28;;;;;;;11.77;5.03;;;;;;;26.75;36.02;100763.13;4469309;32;20535;-68
2022/05/07 10:12:59;;;;;;;14.00;4.22;;;;;;;26.81;37.14;100757.25;4469378;32;20099;-67
2022/05/07 10:15:27;;;;;;;4.40;4.00;;;;;;;26.70;37.86;100755.34;4469307;32;20155;-68
2022/05/07 10:18:14;;;;;;;8.73;3.90;;;;;;;26.99;36.54;100756.88;4469281;32;20080;-67
2022/05/07 10:20:48;;;;;;;5.57;4.35;;;;;;;27.26;37.19;100757.53;4469105;32;20111;-68
2022/05/07 10:23:27;;;;;;;8.85;3.90;;;;;;;27.66;36.86;100751.75;4469181;32;20168;-68
2022/05/07 10:25:57;;;;;;;6.35;3.90;;;;;;;27.77;36.28;100753.66;4469071;32;20149;-68
2022/05/07 10:28:41;;;;;;;7.10;3.70;;;;;;;28.21;35.25;100742.03;4468989;32;20088;-68
2022/05/07 10:31:23;;;;;;;4.22;3.87;;;;;;;28.54;33.85;100749.28;4469088;32;20492;-67
2022/05/07 10:33:51;;;;;;;15.27;3.95;;;;;;;29.17;34.14;100748.69;4469229;32;20575;-68
2022/05/07 10:36:20;;;;;;;4.47;3.83;;;;;;;29.38;33.78;100740.59;4468949;32;20476;-68
2022/05/07 10:38:47;;;;;;;11.73;7.15;;;;;;;29.88;33.13;100740.81;4468904;32;20429;-68
2022/05/07 10:41:17;;;;;;;13.85;7.87;;;;;;;29.81;32.81;100734.19;4469857;32;20108;-67
2022/05/07 10:44:00;;;;;;;8.30;5.25;;;;;;;29.56;32.08;100736.28;4470960;32;20084;-68
2022/05/07 10:46:38;;;;;;;4.95;4.10;;;;;;;29.88;32.91;100729.94;4470973;32;20137;-67
2022/05/07 10:49:06;;;;;;;9.77;4.00;;;;;;;29.97;32.44;100734.59;4470958;32;20160;-68
2022/05/07 10:51:38;;;;;;;6.07;3.40;;;;;;;29.44;32.79;100734.63;4470783;32;20089;-68
2022/05/07 10:54:24;;;;;;;8.07;3.30;;;;;;;29.81;31.53;100731.47;4471091;32;20209;-67
2022/05/07 10:56:53;;;;;;;9.45;3.12;;;;;;;30.61;31.53;100728.84;4471077;32;20103;-67
2022/05/07 10:59:23;;;;;;;4.50;2.83;;;;;;;30.79;29.48;100720.91;4470853;32;20189;-68
2022/05/07 11:01:51;;;;;;;7.65;2.42;;;;;;;30.99;27.28;100734.50;4470642;32;20101;-68
2022/05/07 11:04:19;;;;;;;3.37;2.45;;;;;;;30.75;28.16;100729.47;4470760;32;20123;-68
2022/05/07 11:06:52;;;;;;;6.85;2.62;;;;;;;30.52;27.48;100715.22;4470807;32;20114;-68
2022/05/07 11:09:25;;;;;;;4.28;3.20;;;;;;;30.75;27.62;100721.28;4470878;32;20566;-68
2022/05/07 11:11:54;;;;;;;6.43;2.67;;;;;;;30.75;28.32;100719.47;4470843;32;20440;-68
2022/05/07 11:14:23;;;;;;;5.78;3.20;;;;;;;31.05;28.73;100717.63;4470738;32;20146;-68
2022/05/07 11:16:51;;;;;;;5.37;2.95;;;;;;;31.21;28.14;100722.53;4470590;32;20518;-68
2022/05/07 11:19:24;;;;;;;8.07;3.20;;;;;;;31.22;27.18;100714.19;4470609;32;20482;-68
2022/05/07 11:21:52;;;;;;;3.90;2.87;;;;;;;31.54;27.19;100715.78;4470636;32;20428;-68
2022/05/07 11:24:20;;;;;;;4.35;3.12;;;;;;;31.31;28.47;100716.09;4470710;32;20561;-68
2022/05/07 11:26:56;;;;;;;3.17;2.97;;;;;;;31.75;27.45;100713.72;4470724;32;20080;-68
2022/05/07 11:29:24;;;;;;;3.40;2.92;;;;;;;31.47;26.76;100710.03;4470755;32;20602;-68
2022/05/07 11:32:04;;;;;;;3.12;2.47;;;;;;;30.61;27.93;100695.34;4470720;32;20101;-68
2022/05/07 11:34:34;;;;;;;10.15;3.00;;;;;;;30.57;28.16;100704.81;4470628;32;20543;-68
2022/05/07 11:37:13;;;;;;;12.50;2.70;;;;;;;30.15;29.02;100699.47;4455796;32;20114;-68
2022/05/07 11:39:50;;;;;;;5.22;2.75;;;;;;;29.97;29.08;100697.41;4470618;32;20084;-68
2022/05/07 11:42:43;;;;;;;6.10;3.08;;;;;;;30.49;27.83;100698.16;4470608;32;20092;-68
2022/05/07 11:45:26;;;;;;;5.25;2.70;;;;;;;31.69;26.16;100702.53;4470561;32;20088;-68
2022/05/07 11:48:08;;;;;;;12.98;3.00;;;;;;;32.23;25.34;100690.91;4470567;32;20118;-68
2022/05/07 11:50:41;;;;;;;5.10;3.10;;;;;;;32.52;26.75;100692.66;4470617;32;20152;-68
2022/05/07 11:53:19;;;;;;;3.83;2.45;;;;;;;32.79;24.73;100692.62;4470402;32;20444;-68
2022/05/07 11:55:48;;;;;;;6.50;2.60;;;;;;;33.40;24.59;100690.97;4470762;32;20175;-68
2022/05/07 11:58:23;;;;;;;4.00;2.30;;;;;;;34.10;23.28;100688.25;4470588;32;20120;-68
2022/05/07 12:00:54;;;;;;;3.17;2.55;;;;;;;34.86;22.41;100694.66;4470543;32;20183;-68